createdAt,value
2023-01-31T00:00:30.135Z,100.00
2023-01-31T00:03:15.395Z,100.00
2023-01-31T00:06:10.105Z,100.00
2023-01-31T00:08:56.134Z,100.00
2023-01-31T00:11:41.168Z,100.00
2023-01-31T00:14:26.213Z,100.00
2023-01-31T00:17:11.540Z,100.00
2023-01-31T00:19:56.822Z,100.00
2023-01-31T00:22:41.847Z,100.00
2023-01-31T00:25:27.154Z,100.00
2023-01-31T00:28:12.340Z,100.00
2023-01-31T00:30:58.646Z,100.00
2023-01-31T00:33:45.292Z,100.00
2023-01-31T00:36:32.902Z,100.00
2023-01-31T00:39:17.870Z,100.00
2023-01-31T00:42:03.266Z,100.00
2023-01-31T00:44:48.114Z,100.00
2023-01-31T00:47:33.256Z,100.00
2023-01-31T00:50:18.193Z,100.00
2023-01-31T00:53:03.861Z,100.00
2023-01-31T00:55:54.093Z,100.00
2023-01-31T00:58:42.426Z,100.00
2023-01-31T01:01:29.233Z,100.00
2023-01-31T01:04:14.924Z,100.00
2023-01-31T01:06:59.935Z,100.00
2023-01-31T01:09:45.240Z,100.00
2023-01-31T01:12:30.173Z,100.00
2023-01-31T01:15:15.463Z,100.00
2023-01-31T01:18:00.822Z,100.00
2023-01-31T01:20:45.860Z,100.00
2023-01-31T01:23:30.863Z,100.00
2023-01-31T01:26:22.313Z,100.00
2023-01-31T01:29:07.997Z,100.00
2023-01-31T01:31:53.134Z,100.00
2023-01-31T01:34:38.401Z,100.00
2023-01-31T01:37:24.210Z,100.00
2023-01-31T01:40:10.225Z,100.00
2023-01-31T01:42:55.345Z,100.00
2023-01-31T01:45:40.484Z,100.00
2023-01-31T01:48:27.721Z,100.00
2023-01-31T01:51:15.959Z,100.00
2023-01-31T01:54:05.950Z,100.00
2023-01-31T01:56:54.119Z,100.00
2023-01-31T01:59:45.825Z,100.00
2023-01-31T02:02:31.040Z,100.00
2023-01-31T02:05:24.430Z,100.00
2023-01-31T02:08:10.398Z,100.00
2023-01-31T02:11:17.648Z,100.00
2023-01-31T02:14:09.564Z,100.00
2023-01-31T02:16:55.535Z,100.00
2023-01-31T02:20:01.262Z,100.00
2023-01-31T02:23:20.530Z,100.00
2023-01-31T02:26:28.026Z,100.00
2023-01-31T02:29:28.060Z,100.00
2023-01-31T02:32:32.087Z,100.00
2023-01-31T02:35:38.608Z,100.00
2023-01-31T02:38:29.897Z,100.00
2023-01-31T02:41:40.472Z,100.00
2023-01-31T02:44:50.128Z,100.00
2023-01-31T02:47:47.366Z,100.00
2023-01-31T02:50:45.185Z,100.00
2023-01-31T02:53:37.319Z,100.00
2023-01-31T02:56:27.349Z,100.00
2023-01-31T02:59:18.619Z,100.00
2023-01-31T03:02:04.776Z,100.00
2023-01-31T03:04:49.970Z,100.00
2023-01-31T03:07:38.381Z,100.00
2023-01-31T03:11:03.093Z,100.00
2023-01-31T03:14:15.592Z,100.00
2023-01-31T03:17:33.284Z,100.00
2023-01-31T03:20:36.466Z,100.00
2023-01-31T03:23:26.776Z,100.00
2023-01-31T03:26:12.999Z,100.00
2023-01-31T03:29:01.574Z,100.00
2023-01-31T03:32:04.452Z,100.00
2023-01-31T03:34:49.914Z,100.00
2023-01-31T03:37:50.599Z,100.00
2023-01-31T03:40:49.667Z,100.00
2023-01-31T03:44:04.318Z,100.00
2023-01-31T03:47:13.146Z,100.00
2023-01-31T03:50:03.332Z,100.00
2023-01-31T03:53:09.341Z,100.00
2023-01-31T03:56:01.084Z,100.00
2023-01-31T03:58:51.325Z,100.00
2023-01-31T04:01:41.855Z,100.00
2023-01-31T04:04:40.852Z,100.00
2023-01-31T04:07:26.636Z,100.00
2023-01-31T04:10:16.756Z,100.00
2023-01-31T04:13:02.135Z,100.00
2023-01-31T04:15:46.890Z,100.00
2023-01-31T04:18:32.127Z,100.00
2023-01-31T04:21:17.343Z,100.00
2023-01-31T04:24:02.501Z,100.00
2023-01-31T04:26:48.219Z,100.00
2023-01-31T04:29:33.662Z,100.00
2023-01-31T04:32:18.569Z,100.00
2023-01-31T04:35:04.181Z,100.00
2023-01-31T04:37:48.973Z,100.00
2023-01-31T04:40:33.972Z,100.00
2023-01-31T04:43:19.267Z,100.00
2023-01-31T04:46:04.733Z,100.00
2023-01-31T04:48:49.965Z,100.00
2023-01-31T04:51:35.477Z,100.00
2023-01-31T04:54:20.664Z,100.00
2023-01-31T04:57:05.858Z,100.00
2023-01-31T04:59:52.106Z,100.00
2023-01-31T05:02:37.189Z,100.00
2023-01-31T05:05:22.610Z,100.00
2023-01-31T05:08:07.782Z,100.00
2023-01-31T05:11:03.021Z,100.00
2023-01-31T05:13:49.386Z,100.00
2023-01-31T05:16:34.507Z,100.00
2023-01-31T05:19:19.645Z,100.00
2023-01-31T05:22:05.183Z,100.00
2023-01-31T05:24:50.835Z,100.00
2023-01-31T05:27:36.073Z,100.00
2023-01-31T05:30:24.148Z,100.00
2023-01-31T05:33:09.299Z,100.00
2023-01-31T05:35:54.635Z,100.00
2023-01-31T05:38:39.902Z,100.00
2023-01-31T05:41:24.873Z,100.00
2023-01-31T05:44:10.909Z,100.00
2023-01-31T05:46:55.830Z,100.00
2023-01-31T05:49:41.055Z,100.00
2023-01-31T05:52:26.660Z,100.00
2023-01-31T05:55:11.696Z,100.00
2023-01-31T05:57:57.448Z,100.00
2023-01-31T06:00:42.398Z,100.00
2023-01-31T06:03:27.530Z,100.00
2023-01-31T06:06:13.842Z,100.00
2023-01-31T06:08:59.233Z,100.00
2023-01-31T06:11:44.689Z,100.00
2023-01-31T06:14:29.921Z,100.00
2023-01-31T06:17:15.324Z,100.00
2023-01-31T06:20:00.338Z,100.00
2023-01-31T06:22:45.563Z,100.00
2023-01-31T06:25:31.964Z,100.00
2023-01-31T06:28:18.089Z,100.00
2023-01-31T06:31:11.307Z,100.00
2023-01-31T06:33:56.464Z,100.00
2023-01-31T06:36:41.806Z,100.00
2023-01-31T06:39:27.011Z,100.00
2023-01-31T06:42:11.959Z,100.00
2023-01-31T06:44:57.387Z,100.00
2023-01-31T06:47:45.260Z,100.00
2023-01-31T06:50:30.355Z,100.00
2023-01-31T06:53:15.723Z,100.00
2023-01-31T06:56:00.805Z,100.00
2023-01-31T06:58:46.102Z,100.00
2023-01-31T07:01:31.563Z,100.00
2023-01-31T07:04:16.386Z,100.00
2023-01-31T07:07:01.788Z,100.00
2023-01-31T07:09:47.017Z,100.00
2023-01-31T07:12:32.505Z,100.00
2023-01-31T07:15:18.312Z,100.00
2023-01-31T07:18:03.431Z,100.00
2023-01-31T07:20:50.072Z,100.00
2023-01-31T07:23:35.225Z,100.00
2023-01-31T07:26:20.557Z,100.00
2023-01-31T07:29:05.691Z,100.00
2023-01-31T07:31:51.448Z,100.00
2023-01-31T07:34:36.625Z,100.00
2023-01-31T07:37:21.829Z,100.00
2023-01-31T07:40:07.657Z,100.00
2023-01-31T07:42:58.026Z,100.00
2023-01-31T07:45:43.020Z,100.00
2023-01-31T07:48:28.207Z,100.00
2023-01-31T07:51:13.560Z,100.00
2023-01-31T07:53:58.756Z,100.00
2023-01-31T07:56:44.118Z,100.00
2023-01-31T07:59:29.773Z,100.00
2023-01-31T08:02:35.832Z,100.00
2023-01-31T08:05:21.709Z,100.00
2023-01-31T08:08:12.943Z,100.00
2023-01-31T08:10:58.036Z,100.00
2023-01-31T08:13:43.307Z,100.00
2023-01-31T08:16:29.300Z,100.00
2023-01-31T08:19:14.369Z,100.00
2023-01-31T08:21:59.216Z,100.00
2023-01-31T08:24:44.463Z,100.00
2023-01-31T08:27:30.339Z,100.00
2023-01-31T08:30:15.469Z,100.00
2023-01-31T08:33:02.309Z,100.00
2023-01-31T08:35:47.566Z,100.00
2023-01-31T08:38:32.719Z,100.00
2023-01-31T08:41:19.622Z,100.00
2023-01-31T08:44:06.163Z,100.00
2023-01-31T08:46:51.288Z,100.00
2023-01-31T08:49:37.047Z,100.00
2023-01-31T08:52:21.954Z,100.00
2023-01-31T08:55:09.266Z,100.00
2023-01-31T08:57:59.884Z,100.00
2023-01-31T09:00:45.569Z,100.00
2023-01-31T09:03:31.065Z,100.00
2023-01-31T09:06:19.340Z,100.00
2023-01-31T09:09:04.608Z,100.00
2023-01-31T09:11:49.552Z,100.00
2023-01-31T09:14:34.563Z,100.00
2023-01-31T09:17:19.508Z,100.00
2023-01-31T09:20:06.687Z,100.00
2023-01-31T09:22:51.643Z,100.00
2023-01-31T09:25:45.621Z,100.00
2023-01-31T09:28:33.192Z,100.00
2023-01-31T09:31:20.770Z,100.00
2023-01-31T09:34:06.295Z,100.00
2023-01-31T09:36:51.463Z,100.00
2023-01-31T09:39:36.776Z,100.00
2023-01-31T09:42:27.552Z,100.00
2023-01-31T09:45:29.739Z,100.00
2023-01-31T09:48:22.633Z,100.00
2023-01-31T09:51:13.009Z,100.00
2023-01-31T09:53:58.061Z,100.00
2023-01-31T09:56:54.589Z,100.00
2023-01-31T09:59:46.492Z,100.00
2023-01-31T10:02:42.549Z,100.00
2023-01-31T10:05:49.823Z,100.00
2023-01-31T10:08:53.127Z,100.00
2023-01-31T10:11:47.389Z,100.00
2023-01-31T10:14:38.657Z,100.00
2023-01-31T10:17:33.783Z,100.00
2023-01-31T10:20:40.915Z,100.00
2023-01-31T10:23:33.949Z,100.00
2023-01-31T10:26:36.922Z,100.00
2023-01-31T10:29:34.261Z,100.00
2023-01-31T10:32:31.844Z,100.00
2023-01-31T10:35:31.697Z,100.00
2023-01-31T10:38:30.205Z,100.00
2023-01-31T10:41:25.691Z,100.00
2023-01-31T10:44:22.045Z,100.00
2023-01-31T10:47:18.587Z,100.00
2023-01-31T10:50:42.168Z,100.00
2023-01-31T10:53:52.954Z,100.00
2023-01-31T10:56:42.896Z,100.00
2023-01-31T10:59:28.047Z,100.00
2023-01-31T11:02:23.092Z,100.00
2023-01-31T11:05:18.731Z,100.00
2023-01-31T11:08:20.890Z,100.00
2023-01-31T11:11:11.871Z,100.00
2023-01-31T11:14:01.410Z,100.00
2023-01-31T11:16:48.576Z,100.00
2023-01-31T11:19:39.109Z,100.00
2023-01-31T11:22:31.409Z,100.00
2023-01-31T11:25:25.694Z,100.00
2023-01-31T11:28:22.331Z,100.00
2023-01-31T11:31:19.415Z,100.00
2023-01-31T11:34:17.719Z,100.00
2023-01-31T11:37:14.661Z,100.00
2023-01-31T11:40:03.648Z,100.00
2023-01-31T11:42:55.762Z,100.00
2023-01-31T11:45:45.626Z,100.00
2023-01-31T11:48:41.858Z,100.00
2023-01-31T11:51:31.713Z,100.00
2023-01-31T11:54:23.680Z,100.00
2023-01-31T11:57:24.842Z,100.00
2023-01-31T12:00:25.375Z,100.00
2023-01-31T12:03:15.985Z,100.00
2023-01-31T12:06:06.051Z,100.00
2023-01-31T12:08:54.208Z,100.00
2023-01-31T12:11:51.995Z,100.00
2023-01-31T12:14:42.216Z,100.00
2023-01-31T12:17:30.835Z,100.00
2023-01-31T12:20:28.649Z,100.00
2023-01-31T12:23:20.536Z,100.00
2023-01-31T12:26:17.113Z,100.00
2023-01-31T12:29:42.363Z,100.00
2023-01-31T12:32:46.224Z,100.00
2023-01-31T12:36:03.610Z,100.00
2023-01-31T12:38:48.590Z,100.00
2023-01-31T12:41:36.465Z,100.00
2023-01-31T12:44:37.267Z,100.00
2023-01-31T12:47:46.304Z,100.00
2023-01-31T12:50:55.056Z,100.00
2023-01-31T12:53:49.156Z,100.00
2023-01-31T12:56:49.371Z,100.00
2023-01-31T12:59:49.440Z,100.00
2023-01-31T13:02:43.627Z,100.00
2023-01-31T13:05:37.326Z,100.00
2023-01-31T13:08:27.209Z,100.00
2023-01-31T13:11:20.480Z,100.00
2023-01-31T13:14:11.893Z,100.00
2023-01-31T13:17:01.331Z,100.00
2023-01-31T13:19:50.628Z,100.00
2023-01-31T13:22:46.651Z,100.00
2023-01-31T13:25:39.758Z,100.00
2023-01-31T13:28:37.867Z,100.00
2023-01-31T13:31:33.962Z,100.00
2023-01-31T13:34:34.619Z,100.00
2023-01-31T13:37:23.278Z,100.00
2023-01-31T13:40:19.631Z,100.00
2023-01-31T13:43:13.729Z,100.00
2023-01-31T13:46:05.417Z,100.00
2023-01-31T13:48:57.714Z,100.00
2023-01-31T13:51:58.666Z,100.00
2023-01-31T13:54:49.603Z,100.00
2023-01-31T13:57:46.493Z,100.00
2023-01-31T14:00:44.244Z,100.00
2023-01-31T14:03:29.473Z,100.00
2023-01-31T14:06:14.564Z,100.00
2023-01-31T14:08:59.610Z,100.00
2023-01-31T14:11:44.938Z,99.15
2023-01-31T14:14:37.283Z,97.84
2023-01-31T14:17:22.146Z,97.08
2023-01-31T14:20:25.864Z,96.11
2023-01-31T14:23:31.625Z,93.85
2023-01-31T14:26:32.726Z,93.48
2023-01-31T14:29:27.291Z,93.98
2023-01-31T14:32:24.229Z,93.36
2023-01-31T14:35:12.104Z,92.27
2023-01-31T14:38:27.663Z,91.66
2023-01-31T14:41:25.054Z,91.31
2023-01-31T14:44:09.853Z,91.18
2023-01-31T14:47:25.918Z,92.10
2023-01-31T14:50:29.075Z,91.22
2023-01-31T14:53:49.774Z,90.94
2023-01-31T14:56:56.486Z,90.80
2023-01-31T14:59:53.881Z,91.35
2023-01-31T15:03:01.611Z,91.86
2023-01-31T15:06:08.462Z,90.68
2023-01-31T15:09:15.532Z,89.40
2023-01-31T15:12:01.257Z,88.96
2023-01-31T15:14:49.146Z,88.71
2023-01-31T15:17:39.273Z,89.57
2023-01-31T15:20:36.866Z,88.51
2023-01-31T15:23:31.643Z,88.35
2023-01-31T15:26:18.903Z,88.66
2023-01-31T15:29:04.976Z,88.72
2023-01-31T15:31:54.796Z,86.85
2023-01-31T15:34:47.454Z,87.32
2023-01-31T15:37:35.184Z,87.71
2023-01-31T15:40:24.022Z,87.21
2023-01-31T15:43:23.707Z,87.55
2023-01-31T15:46:21.711Z,85.93
2023-01-31T15:49:38.583Z,96.69
2023-01-31T15:52:25.346Z,85.38
2023-01-31T15:55:14.663Z,76.94
2023-01-31T15:58:03.009Z,76.69
2023-01-31T16:00:56.623Z,76.28
2023-01-31T16:03:43.436Z,75.75
2023-01-31T16:06:36.565Z,76.74
2023-01-31T16:09:29.627Z,76.58
2023-01-31T16:12:16.060Z,77.53
2023-01-31T16:15:06.110Z,76.12
2023-01-31T16:17:53.341Z,73.79
2023-01-31T16:21:15.886Z,74.36
2023-01-31T16:24:03.926Z,73.85
2023-01-31T16:27:05.525Z,73.74
2023-01-31T16:29:58.985Z,74.73
2023-01-31T16:32:46.485Z,75.00
2023-01-31T16:35:31.525Z,74.50
2023-01-31T16:38:21.516Z,74.76
2023-01-31T16:41:12.622Z,75.70
2023-01-31T16:43:58.085Z,76.14
2023-01-31T16:46:45.941Z,75.89
2023-01-31T16:49:35.543Z,76.96
2023-01-31T16:52:29.650Z,75.87
2023-01-31T16:55:17.686Z,76.04
2023-01-31T16:58:02.942Z,76.07
2023-01-31T17:00:48.688Z,76.30
2023-01-31T17:03:36.052Z,76.52
2023-01-31T17:06:22.351Z,76.41
2023-01-31T17:09:09.727Z,76.90
2023-01-31T17:11:56.259Z,79.62
2023-01-31T17:14:41.436Z,80.95
2023-01-31T17:17:34.947Z,78.66
2023-01-31T17:20:21.706Z,78.65
2023-01-31T17:23:07.047Z,76.84
2023-01-31T17:25:52.234Z,76.26
2023-01-31T17:28:37.356Z,75.70
2023-01-31T17:31:23.739Z,75.96
2023-01-31T17:34:13.919Z,76.29
2023-01-31T17:36:59.191Z,76.70
2023-01-31T17:39:44.304Z,77.02
2023-01-31T17:42:29.610Z,77.11
2023-01-31T17:45:18.889Z,77.53
2023-01-31T17:48:06.132Z,78.07
2023-01-31T17:50:53.534Z,78.84
2023-01-31T17:53:47.959Z,79.10
2023-01-31T17:56:34.610Z,78.83
2023-01-31T17:59:26.938Z,78.89
2023-01-31T18:02:12.588Z,78.90
2023-01-31T18:04:57.979Z,78.66
2023-01-31T18:07:43.351Z,79.30
2023-01-31T18:10:28.822Z,79.35
2023-01-31T18:13:13.631Z,79.50
2023-01-31T18:16:07.297Z,79.36
2023-01-31T18:18:53.344Z,79.63
2023-01-31T18:21:43.901Z,79.68
2023-01-31T18:24:32.170Z,80.01
2023-01-31T18:27:17.362Z,79.81
2023-01-31T18:30:02.671Z,80.34
2023-01-31T18:32:47.762Z,80.07
2023-01-31T18:35:33.044Z,80.30
2023-01-31T18:38:18.212Z,80.37
2023-01-31T18:41:06.595Z,80.62
2023-01-31T18:43:51.673Z,80.88
2023-01-31T18:46:36.731Z,81.06
2023-01-31T18:49:22.048Z,81.16
2023-01-31T18:52:08.413Z,81.53
2023-01-31T18:54:54.235Z,81.37
2023-01-31T18:57:39.162Z,81.47
2023-01-31T19:00:24.502Z,80.83
2023-01-31T19:03:09.767Z,81.04
2023-01-31T19:05:54.954Z,81.27
2023-01-31T19:08:40.811Z,81.37
2023-01-31T19:11:28.370Z,80.96
2023-01-31T19:14:14.198Z,81.13
2023-01-31T19:16:59.538Z,81.44
2023-01-31T19:19:44.611Z,81.18
2023-01-31T19:22:29.547Z,81.38
2023-01-31T19:25:14.871Z,80.99
2023-01-31T19:28:01.041Z,80.75
2023-01-31T19:30:46.392Z,80.77
2023-01-31T19:33:31.429Z,80.84
2023-01-31T19:36:21.683Z,81.02
2023-01-31T19:39:10.562Z,81.53
2023-01-31T19:41:55.642Z,81.90
2023-01-31T19:44:40.503Z,82.28
2023-01-31T19:47:25.841Z,82.00
2023-01-31T19:50:11.434Z,81.76
2023-01-31T19:52:56.707Z,81.55
2023-01-31T19:55:41.924Z,81.39
2023-01-31T19:58:31.263Z,81.63
2023-01-31T20:01:17.107Z,81.52
2023-01-31T20:04:02.393Z,81.69
2023-01-31T20:06:48.037Z,81.56
2023-01-31T20:09:33.313Z,81.47
2023-01-31T20:12:18.493Z,82.44
2023-01-31T20:15:05.892Z,82.30
2023-01-31T20:17:51.269Z,82.27
2023-01-31T20:20:36.267Z,81.94
2023-01-31T20:23:21.610Z,81.79
2023-01-31T20:26:07.212Z,81.57
2023-01-31T20:28:52.455Z,81.44
2023-01-31T20:31:38.311Z,81.20
2023-01-31T20:34:23.462Z,81.43
2023-01-31T20:37:09.086Z,81.48
2023-01-31T20:39:54.339Z,81.82
2023-01-31T20:42:39.525Z,81.68
2023-01-31T20:45:28.388Z,81.06
2023-01-31T20:48:14.063Z,81.37
2023-01-31T20:50:59.874Z,81.47
2023-01-31T20:53:45.354Z,81.62
2023-01-31T20:56:30.514Z,81.42
2023-01-31T20:59:15.561Z,81.68
2023-01-31T21:02:00.689Z,81.94
2023-01-31T21:04:46.020Z,82.47
2023-01-31T21:07:31.102Z,82.45
2023-01-31T21:10:16.249Z,82.38
2023-01-31T21:13:01.551Z,82.90
2023-01-31T21:15:55.039Z,83.23
2023-01-31T21:18:42.845Z,83.53
2023-01-31T21:21:28.045Z,83.84
2023-01-31T21:24:13.488Z,84.48
2023-01-31T21:26:58.898Z,83.89
2023-01-31T21:29:44.433Z,84.45
2023-01-31T21:32:29.331Z,84.50
2023-01-31T21:35:14.708Z,84.90
2023-01-31T21:37:59.802Z,85.13
2023-01-31T21:40:45.007Z,85.31
2023-01-31T21:43:30.638Z,85.71
2023-01-31T21:46:15.946Z,86.03
2023-01-31T21:49:01.459Z,86.10
2023-01-31T21:51:46.679Z,86.00
2023-01-31T21:54:32.438Z,86.31
2023-01-31T21:57:17.469Z,86.14
2023-01-31T22:00:02.490Z,86.63
2023-01-31T22:02:51.743Z,86.85
2023-01-31T22:05:36.775Z,86.51
2023-01-31T22:08:21.878Z,87.15
2023-01-31T22:11:10.281Z,87.71
2023-01-31T22:13:56.283Z,87.91
2023-01-31T22:16:42.316Z,87.86
2023-01-31T22:19:27.321Z,88.56
2023-01-31T22:22:12.346Z,88.75
2023-01-31T22:24:57.306Z,88.76
2023-01-31T22:27:42.434Z,89.27
2023-01-31T22:30:27.701Z,89.21
2023-01-31T22:33:13.327Z,89.23
2023-01-31T22:35:58.402Z,89.40
2023-01-31T22:38:45.283Z,89.49
2023-01-31T22:41:30.501Z,90.00
2023-01-31T22:44:15.591Z,90.16
2023-01-31T22:47:00.970Z,90.55
2023-01-31T22:49:46.259Z,90.31
2023-01-31T22:52:31.369Z,90.69
2023-01-31T22:55:16.389Z,91.24
2023-01-31T22:58:01.678Z,91.02
2023-01-31T23:00:47.724Z,91.06
2023-01-31T23:03:32.808Z,91.06
2023-01-31T23:06:18.253Z,91.59
2023-01-31T23:09:03.613Z,91.31
2023-01-31T23:11:48.865Z,91.84
2023-01-31T23:14:34.096Z,91.31
2023-01-31T23:17:37.580Z,91.84
2023-01-31T23:20:23.391Z,91.77
2023-01-31T23:23:08.523Z,91.82
2023-01-31T23:25:53.475Z,92.14
2023-01-31T23:28:38.727Z,92.06
2023-01-31T23:31:23.781Z,92.21
2023-01-31T23:34:08.787Z,92.19
2023-01-31T23:36:54.335Z,92.00
2023-01-31T23:39:39.652Z,92.16
2023-01-31T23:42:25.097Z,92.23
2023-01-31T23:45:10.706Z,92.01
2023-01-31T23:47:56.139Z,91.73
2023-01-31T23:50:41.380Z,92.38
2023-01-31T23:53:28.077Z,91.96
2023-01-31T23:56:13.194Z,92.08
2023-01-31T23:58:58.376Z,92.18
